PWSweather.com
Personal Weather Stations
Station Observations
KKYBOWLI8
Greystone Ii, Bowling Green, KY 42101

Greystone IiBowling Green, KY 42101

Lat: 36.9238, Lon: -86.5206

Elevation: 600

Station Type: Davis Vantage Pro2

www.sokyweather.com

High Low Average
Temperature 51.4°F10.8°F 36.9°F2.7°F 44.7°F7.1°F
Dew Point 45.8°F7.7°F 36.9°F2.7°F 42.6°F5.9°F
Winds 2.1 mph -3.4 mph - Calm Calm 0.6 mph 1.0 mph
Wind Gusts 9.0 mph14.5 mph -- 3.8 mph6.1 mph
Humidity 100% 77% 93%
Pressure 30.28 in1025.40 in 30.09 in1019.00 in -
Precipitation 0.43 in10.90 in - -
Hour Temp Dew Point Humidity Winds Wind Gusts Pressure Precip Precip Rate Daily Precip Total
12:00 AM 44.4°F6.9°C 44.4°F6.9°C 100% Calm Calm -- 30.09 in1019.0 mb 0.00 in0.0 mm 0.00 in0.0 mm 0.00 in0.0 mm
12:10 AM 44.1°F6.7°C 44.1°F6.7°C 100% Calm Calm -- 30.09 in1019.0 mb 0.00 in0.0 mm 0.00 in0.0 mm 0.00 in0.0 mm
12:20 AM 43.6°F6.4°C 43.6°F6.4°C 100% Calm Calm -- 30.09 in1019.0 mb 0.00 in0.0 mm 0.00 in0.0 mm 0.00 in0.0 mm
12:30 AM 43.1°F6.2°C 43.1°F6.2°C 100% Calm Calm -- 30.10 in1019.3 mb 0.00 in0.0 mm 0.00 in0.0 mm 0.00 in0.0 mm
12:40 AM 42.5°F5.8°C 42.5°F5.8°C 100% Calm Calm -- 30.10 in1019.3 mb 0.00 in0.0 mm 0.00 in0.0 mm 0.00 in0.0 mm
12:50 AM 41.9°F5.5°C 41.9°F5.5°C 100% Calm Calm -- 30.11 in1019.6 mb 0.00 in0.0 mm 0.00 in0.0 mm 0.00 in0.0 mm
01:00 AM 40.9°F4.9°C 40.9°F4.9°C 100% Calm Calm -- 30.11 in1019.6 mb 0.00 in0.0 mm 0.00 in0.0 mm 0.00 in0.0 mm
01:10 AM 40.5°F4.7°C 40.5°F4.7°C 100% Calm Calm -- 30.11 in1019.6 mb 0.00 in0.0 mm 0.00 in0.0 mm 0.00 in0.0 mm
01:20 AM 39.9°F4.4°C 39.9°F4.4°C 100% Calm Calm -- 30.11 in1019.6 mb 0.00 in0.0 mm 0.00 in0.0 mm 0.00 in0.0 mm
01:30 AM 39.4°F4.1°C 39.4°F4.1°C 100% Calm Calm -- 30.12 in1020.0 mb 0.00 in0.0 mm 0.00 in0.0 mm 0.00 in0.0 mm
01:40 AM 38.8°F3.8°C 38.8°F3.8°C 100% Calm Calm -- 30.12 in1020.0 mb 0.00 in0.0 mm 0.00 in0.0 mm 0.00 in0.0 mm
01:50 AM 38.5°F3.6°C 38.5°F3.6°C 100% Calm Calm -- 30.11 in1019.6 mb 0.00 in0.0 mm 0.00 in0.0 mm 0.00 in0.0 mm
02:00 AM 38.1°F3.4°C 38.1°F3.4°C 100% Calm Calm -- 30.11 in1019.6 mb 0.00 in0.0 mm 0.00 in0.0 mm 0.00 in0.0 mm
02:10 AM 37.5°F3.1°C 37.5°F3.1°C 100% Calm Calm -- 30.12 in1020.0 mb 0.00 in0.0 mm 0.00 in0.0 mm 0.00 in0.0 mm
02:20 AM 37.1°F2.8°C 37.1°F2.8°C 100% Calm Calm -- 30.12 in1020.0 mb 0.00 in0.0 mm 0.00 in0.0 mm 0.00 in0.0 mm
02:30 AM 36.9°F2.7°C 36.9°F2.7°C 100% Calm Calm -- 30.13 in1020.3 mb 0.00 in0.0 mm 0.00 in0.0 mm 0.00 in0.0 mm
02:40 AM 36.9°F2.7°C 36.9°F2.7°C 100% Calm Calm -- 30.12 in1020.0 mb 0.00 in0.0 mm 0.00 in0.0 mm 0.00 in0.0 mm
02:50 AM 38.1°F3.4°C 38.1°F3.4°C 100% Calm Calm -- 30.12 in1020.0 mb 0.00 in0.0 mm 0.00 in0.0 mm 0.00 in0.0 mm
03:00 AM 39.6°F4.2°C 39.6°F4.2°C 100% Calm Calm 1.0 mph1.6 kmh 30.12 in1020.0 mb 0.00 in0.0 mm 0.00 in0.0 mm 0.00 in0.0 mm
03:10 AM 40.4°F4.7°C 40.4°F4.7°C 100% Calm Calm -- 30.12 in1020.0 mb 0.00 in0.0 mm 0.00 in0.0 mm 0.00 in0.0 mm
03:20 AM 40.9°F4.9°C 40.9°F4.9°C 100% Calm Calm 3.0 mph4.8 kmh 30.12 in1020.0 mb 0.00 in0.0 mm 0.00 in0.0 mm 0.00 in0.0 mm
03:30 AM 41.5°F5.3°C 41.5°F5.3°C 100% Calm Calm 4.0 mph6.4 kmh 30.11 in1019.6 mb 0.00 in0.0 mm 0.00 in0.0 mm 0.00 in0.0 mm
03:40 AM 41.9°F5.5°C 41.9°F5.5°C 100% 1.0 mph NW1.6 kmh NW 6.0 mph9.7 kmh 30.11 in1019.6 mb 0.00 in0.0 mm 0.00 in0.0 mm 0.00 in0.0 mm
03:50 AM 42.1°F5.6°C 42.1°F5.6°C 100% 1.0 mph NW1.6 kmh NW 4.0 mph6.4 kmh 30.12 in1020.0 mb 0.00 in0.0 mm 0.00 in0.0 mm 0.00 in0.0 mm
04:00 AM 42.2°F5.7°C 42.2°F5.7°C 100% 1.0 mph N1.6 kmh N 4.0 mph6.4 kmh 30.12 in1020.0 mb 0.00 in0.0 mm 0.00 in0.0 mm 0.00 in0.0 mm
04:10 AM 42.2°F5.7°C 42.2°F5.7°C 100% 0.9 mph NNW1.4 kmh NNW 5.0 mph8.0 kmh 30.13 in1020.3 mb 0.00 in0.0 mm 0.00 in0.0 mm 0.00 in0.0 mm
04:20 AM 42.2°F5.7°C 42.2°F5.7°C 100% Calm Calm 4.0 mph6.4 kmh 30.14 in1020.7 mb 0.00 in0.0 mm 0.00 in0.0 mm 0.00 in0.0 mm
04:30 AM 42.4°F5.8°C 42.4°F5.8°C 100% Calm Calm -- 30.15 in1021.0 mb 0.00 in0.0 mm 0.00 in0.0 mm 0.00 in0.0 mm
04:40 AM 42.2°F5.7°C 42.2°F5.7°C 100% Calm Calm -- 30.15 in1021.0 mb 0.00 in0.0 mm 0.00 in0.0 mm 0.00 in0.0 mm
04:50 AM 42.1°F5.6°C 42.1°F5.6°C 100% Calm Calm -- 30.16 in1021.3 mb 0.00 in0.0 mm 0.00 in0.0 mm 0.00 in0.0 mm
05:00 AM 41.9°F5.5°C 41.9°F5.5°C 100% Calm Calm 2.0 mph3.2 kmh 30.17 in1021.7 mb 0.00 in0.0 mm 0.00 in0.0 mm 0.00 in0.0 mm
05:10 AM 41.8°F5.4°C 41.8°F5.4°C 100% Calm Calm -- 30.18 in1022.0 mb 0.00 in0.0 mm 0.00 in0.0 mm 0.00 in0.0 mm
05:20 AM 41.2°F5.1°C 41.2°F5.1°C 100% Calm Calm -- 30.18 in1022.0 mb 0.00 in0.0 mm 0.00 in0.0 mm 0.00 in0.0 mm
05:30 AM 40.8°F4.9°C 40.8°F4.9°C 100% Calm Calm -- 30.18 in1022.0 mb 0.00 in0.0 mm 0.00 in0.0 mm 0.00 in0.0 mm
05:40 AM 40.4°F4.7°C 40.4°F4.7°C 100% Calm Calm -- 30.19 in1022.4 mb 0.00 in0.0 mm 0.00 in0.0 mm 0.00 in0.0 mm
05:50 AM 39.9°F4.4°C 39.9°F4.4°C 100% Calm Calm -- 30.19 in1022.4 mb 0.00 in0.0 mm 0.00 in0.0 mm 0.00 in0.0 mm
06:00 AM 39.6°F4.2°C 39.6°F4.2°C 100% Calm Calm -- 30.19 in1022.4 mb 0.00 in0.0 mm 0.00 in0.0 mm 0.00 in0.0 mm
06:10 AM 39.4°F4.1°C 39.4°F4.1°C 100% Calm Calm -- 30.20 in1022.7 mb 0.00 in0.0 mm 0.00 in0.0 mm 0.00 in0.0 mm
06:20 AM 38.9°F3.8°C 38.9°F3.8°C 100% Calm Calm -- 30.20 in1022.7 mb 0.00 in0.0 mm 0.00 in0.0 mm 0.00 in0.0 mm
06:30 AM 38.3°F3.5°C 38.3°F3.5°C 100% Calm Calm -- 30.21 in1023.0 mb 0.00 in0.0 mm 0.00 in0.0 mm 0.00 in0.0 mm
06:40 AM 37.9°F3.3°C 37.9°F3.3°C 100% Calm Calm -- 30.21 in1023.0 mb 0.00 in0.0 mm 0.00 in0.0 mm 0.00 in0.0 mm
06:50 AM 37.5°F3.1°C 37.5°F3.1°C 100% Calm Calm -- 30.21 in1023.0 mb 0.00 in0.0 mm 0.00 in0.0 mm 0.00 in0.0 mm
07:00 AM 37.3°F2.9°C 37.3°F2.9°C 100% Calm Calm -- 30.21 in1023.0 mb 0.00 in0.0 mm 0.00 in0.0 mm 0.00 in0.0 mm
07:10 AM 37.9°F3.3°C 37.9°F3.3°C 100% Calm Calm -- 30.22 in1023.4 mb 0.00 in0.0 mm 0.00 in0.0 mm 0.00 in0.0 mm
07:20 AM 38.6°F3.7°C 38.6°F3.7°C 100% Calm Calm -- 30.22 in1023.4 mb 0.00 in0.0 mm 0.00 in0.0 mm 0.00 in0.0 mm
07:30 AM 38.9°F3.8°C 38.9°F3.8°C 100% Calm Calm -- 30.22 in1023.4 mb 0.00 in0.0 mm 0.00 in0.0 mm 0.00 in0.0 mm
07:40 AM 39.2°F4.0°C 39.2°F4.0°C 100% Calm Calm -- 30.22 in1023.4 mb 0.00 in0.0 mm 0.00 in0.0 mm 0.00 in0.0 mm
07:50 AM 40.2°F4.6°C 40.2°F4.6°C 100% Calm Calm 2.0 mph3.2 kmh 30.23 in1023.7 mb 0.00 in0.0 mm 0.00 in0.0 mm 0.00 in0.0 mm
08:00 AM 41.2°F5.1°C 41.2°F5.1°C 100% Calm Calm 4.0 mph6.4 kmh 30.23 in1023.7 mb 0.00 in0.0 mm 0.00 in0.0 mm 0.00 in0.0 mm
08:10 AM 41.9°F5.5°C 41.9°F5.5°C 100% 0.9 mph NE1.4 kmh NE 4.0 mph6.4 kmh 30.24 in1024.0 mb 0.00 in0.0 mm 0.00 in0.0 mm 0.00 in0.0 mm
08:20 AM 42.4°F5.8°C 42.4°F5.8°C 100% 1.2 mph NE1.9 kmh NE 5.0 mph8.0 kmh 30.25 in1024.4 mb 0.00 in0.0 mm 0.00 in0.0 mm 0.00 in0.0 mm
08:30 AM 42.8°F6.0°C 42.8°F6.0°C 100% 1.8 mph NE2.9 kmh NE 6.0 mph9.7 kmh 30.25 in1024.4 mb 0.00 in0.0 mm 0.00 in0.0 mm 0.00 in0.0 mm
08:40 AM 42.9°F6.1°C 42.9°F6.1°C 100% 1.9 mph NE3.1 kmh NE 7.0 mph11.3 kmh 30.25 in1024.4 mb 0.00 in0.0 mm 0.00 in0.0 mm 0.00 in0.0 mm
08:50 AM 43.5°F6.4°C 42.4°F5.8°C 96% 1.5 mph NE2.4 kmh NE 6.0 mph9.7 kmh 30.25 in1024.4 mb 0.00 in0.0 mm 0.00 in0.0 mm 0.00 in0.0 mm
09:00 AM 44.2°F6.8°C 42.6°F5.9°C 94% 1.0 mph NE1.6 kmh NE 4.0 mph6.4 kmh 30.26 in1024.7 mb 0.00 in0.0 mm 0.00 in0.0 mm 0.00 in0.0 mm
09:10 AM 44.8°F7.1°C 42.3°F5.7°C 91% 1.0 mph NE1.6 kmh NE 6.0 mph9.7 kmh 30.25 in1024.4 mb 0.00 in0.0 mm 0.00 in0.0 mm 0.00 in0.0 mm
09:20 AM 44.8°F7.1°C 42.9°F6.1°C 93% 1.7 mph NE2.7 kmh NE 6.0 mph9.7 kmh 30.25 in1024.4 mb 0.00 in0.0 mm 0.00 in0.0 mm 0.00 in0.0 mm
09:30 AM 45.1°F7.3°C 42.1°F5.6°C 89% 1.0 mph NE1.6 kmh NE 5.0 mph8.0 kmh 30.25 in1024.4 mb 0.00 in0.0 mm 0.00 in0.0 mm 0.00 in0.0 mm
09:40 AM 45.8°F7.7°C 42.4°F5.8°C 88% 1.0 mph NE1.6 kmh NE 5.0 mph8.0 kmh 30.24 in1024.0 mb 0.00 in0.0 mm 0.00 in0.0 mm 0.00 in0.0 mm
09:50 AM 46.4°F8.0°C 43.0°F6.1°C 88% 0.6 mph ENE1.0 kmh ENE 4.0 mph6.4 kmh 30.24 in1024.0 mb 0.00 in0.0 mm 0.00 in0.0 mm 0.00 in0.0 mm
10:00 AM 46.8°F8.2°C 43.7°F6.5°C 89% 1.0 mph NE1.6 kmh NE 7.0 mph11.3 kmh 30.23 in1023.7 mb 0.00 in0.0 mm 0.00 in0.0 mm 0.00 in0.0 mm
10:10 AM 47.4°F8.6°C 44.3°F6.8°C 89% 1.0 mph NE1.6 kmh NE 5.0 mph8.0 kmh 30.23 in1023.7 mb 0.00 in0.0 mm 0.00 in0.0 mm 0.00 in0.0 mm
10:20 AM 48.0°F8.9°C 44.0°F6.7°C 86% 0.7 mph ENE1.1 kmh ENE 8.0 mph12.9 kmh 30.23 in1023.7 mb 0.00 in0.0 mm 0.00 in0.0 mm 0.00 in0.0 mm
10:30 AM 48.3°F9.1°C 44.0°F6.7°C 85% 1.0 mph NE1.6 kmh NE 7.0 mph11.3 kmh 30.23 in1023.7 mb 0.00 in0.0 mm 0.00 in0.0 mm 0.00 in0.0 mm
10:40 AM 48.8°F9.3°C 45.1°F7.3°C 87% 1.0 mph ENE1.6 kmh ENE 7.0 mph11.3 kmh 30.23 in1023.7 mb 0.00 in0.0 mm 0.00 in0.0 mm 0.00 in0.0 mm
10:50 AM 49.2°F9.6°C 45.5°F7.5°C 87% 1.0 mph ENE1.6 kmh ENE 5.0 mph8.0 kmh 30.23 in1023.7 mb 0.00 in0.0 mm 0.00 in0.0 mm 0.00 in0.0 mm
11:00 AM 49.4°F9.7°C 45.1°F7.3°C 85% 0.8 mph ENE1.3 kmh ENE 7.0 mph11.3 kmh 30.23 in1023.7 mb 0.00 in0.0 mm 0.00 in0.0 mm 0.00 in0.0 mm
11:10 AM 49.7°F9.8°C 45.1°F7.3°C 84% 1.0 mph E1.6 kmh E 7.0 mph11.3 kmh 30.23 in1023.7 mb 0.00 in0.0 mm 0.00 in0.0 mm 0.00 in0.0 mm
11:20 AM 50.2°F10.1°C 45.2°F7.3°C 83% 0.9 mph NE1.4 kmh NE 8.0 mph12.9 kmh 30.23 in1023.7 mb 0.00 in0.0 mm 0.00 in0.0 mm 0.00 in0.0 mm
11:30 AM 50.5°F10.3°C 44.6°F7.0°C 80% 1.0 mph NE1.6 kmh NE 8.0 mph12.9 kmh 30.23 in1023.7 mb 0.00 in0.0 mm 0.00 in0.0 mm 0.00 in0.0 mm
11:40 AM 50.8°F10.4°C 45.8°F7.7°C 83% 1.7 mph ENE2.7 kmh ENE 5.0 mph8.0 kmh 30.22 in1023.4 mb 0.00 in0.0 mm 0.00 in0.0 mm 0.00 in0.0 mm
11:50 AM 50.8°F10.4°C 44.9°F7.2°C 80% 1.6 mph NE2.6 kmh NE 7.0 mph11.3 kmh 30.22 in1023.4 mb 0.00 in0.0 mm 0.00 in0.0 mm 0.00 in0.0 mm
12:00 PM 50.2°F10.1°C 44.6°F7.0°C 81% 1.4 mph NE2.3 kmh NE 6.0 mph9.7 kmh 30.22 in1023.4 mb 0.00 in0.0 mm 0.00 in0.0 mm 0.00 in0.0 mm
12:10 PM 50.1°F10.1°C 44.5°F6.9°C 81% Calm Calm 6.0 mph9.7 kmh 30.21 in1023.0 mb 0.00 in0.0 mm 0.00 in0.0 mm 0.00 in0.0 mm
12:20 PM 50.5°F10.3°C 45.2°F7.3°C 82% 0.6 mph NE1.0 kmh NE 7.0 mph11.3 kmh 30.21 in1023.0 mb 0.00 in0.0 mm 0.00 in0.0 mm 0.00 in0.0 mm
12:30 PM 50.7°F10.4°C 45.1°F7.3°C 81% 0.9 mph NE1.4 kmh NE 6.0 mph9.7 kmh 30.21 in1023.0 mb 0.00 in0.0 mm 0.00 in0.0 mm 0.00 in0.0 mm
12:40 PM 50.8°F10.4°C 45.2°F7.3°C 81% 1.0 mph NE1.6 kmh NE 7.0 mph11.3 kmh 30.22 in1023.4 mb 0.00 in0.0 mm 0.00 in0.0 mm 0.00 in0.0 mm
12:50 PM 50.8°F10.4°C 45.2°F7.3°C 81% 1.0 mph NE1.6 kmh NE 6.0 mph9.7 kmh 30.21 in1023.0 mb 0.00 in0.0 mm 0.00 in0.0 mm 0.00 in0.0 mm
01:00 PM 51.0°F10.6°C 45.0°F7.2°C 80% 1.0 mph NNE1.6 kmh NNE 6.0 mph9.7 kmh 30.21 in1023.0 mb 0.00 in0.0 mm 0.00 in0.0 mm 0.00 in0.0 mm
01:10 PM 51.0°F10.6°C 45.4°F7.4°C 81% 1.0 mph NE1.6 kmh NE 6.0 mph9.7 kmh 30.20 in1022.7 mb 0.00 in0.0 mm 0.00 in0.0 mm 0.00 in0.0 mm
01:20 PM 50.7°F10.4°C 45.4°F7.4°C 82% 1.5 mph NE2.4 kmh NE 7.0 mph11.3 kmh 30.20 in1022.7 mb 0.00 in0.0 mm 0.00 in0.0 mm 0.00 in0.0 mm
01:30 PM 50.8°F10.4°C 45.2°F7.3°C 81% 1.3 mph NNE2.1 kmh NNE 5.0 mph8.0 kmh 30.20 in1022.7 mb 0.00 in0.0 mm 0.00 in0.0 mm 0.00 in0.0 mm
01:40 PM 51.0°F10.6°C 45.0°F7.2°C 80% 1.0 mph NE1.6 kmh NE 6.0 mph9.7 kmh 30.21 in1023.0 mb 0.00 in0.0 mm 0.00 in0.0 mm 0.00 in0.0 mm
01:50 PM 51.0°F10.6°C 45.0°F7.2°C 80% 1.9 mph NE3.1 kmh NE 7.0 mph11.3 kmh 30.21 in1023.0 mb 0.00 in0.0 mm 0.00 in0.0 mm 0.00 in0.0 mm
02:00 PM 51.4°F10.8°C 45.4°F7.4°C 80% 1.0 mph NE1.6 kmh NE 6.0 mph9.7 kmh 30.21 in1023.0 mb 0.00 in0.0 mm 0.00 in0.0 mm 0.00 in0.0 mm
02:10 PM 51.1°F10.6°C 44.8°F7.1°C 79% 0.4 mph NE0.6 kmh NE 7.0 mph11.3 kmh 30.21 in1023.0 mb 0.00 in0.0 mm 0.00 in0.0 mm 0.00 in0.0 mm
02:20 PM 50.8°F10.4°C 44.9°F7.2°C 80% 0.8 mph NE1.3 kmh NE 3.0 mph4.8 kmh 30.22 in1023.4 mb 0.00 in0.0 mm 0.00 in0.0 mm 0.00 in0.0 mm
02:30 PM 50.7°F10.4°C 44.8°F7.1°C 80% Calm Calm 5.0 mph8.0 kmh 30.22 in1023.4 mb 0.00 in0.0 mm 0.00 in0.0 mm 0.00 in0.0 mm
02:40 PM 50.4°F10.2°C 44.5°F6.9°C 80% 0.2 mph NE0.3 kmh NE 4.0 mph6.4 kmh 30.21 in1023.0 mb 0.00 in0.0 mm 0.00 in0.0 mm 0.00 in0.0 mm
02:50 PM 50.2°F10.1°C 44.6°F7.0°C 81% 0.5 mph NE0.8 kmh NE 5.0 mph8.0 kmh 30.21 in1023.0 mb 0.00 in0.0 mm 0.00 in0.0 mm 0.00 in0.0 mm
03:00 PM 50.1°F10.1°C 44.5°F6.9°C 81% 1.0 mph NE1.6 kmh NE 7.0 mph11.3 kmh 30.21 in1023.0 mb 0.00 in0.0 mm 0.00 in0.0 mm 0.00 in0.0 mm
03:10 PM 49.9°F9.9°C 44.3°F6.8°C 81% 0.7 mph NE1.1 kmh NE 5.0 mph8.0 kmh 30.21 in1023.0 mb 0.00 in0.0 mm 0.00 in0.0 mm 0.00 in0.0 mm
03:20 PM 49.8°F9.9°C 44.5°F6.9°C 82% 1.0 mph NNE1.6 kmh NNE 6.0 mph9.7 kmh 30.22 in1023.4 mb 0.00 in0.0 mm 0.00 in0.0 mm 0.00 in0.0 mm
03:30 PM 49.8°F9.9°C 44.5°F6.9°C 82% 1.0 mph NE1.6 kmh NE 4.0 mph6.4 kmh 30.22 in1023.4 mb 0.00 in0.0 mm 0.00 in0.0 mm 0.00 in0.0 mm
03:40 PM 49.7°F9.8°C 44.4°F6.9°C 82% 0.2 mph NE0.3 kmh NE 3.0 mph4.8 kmh 30.22 in1023.4 mb 0.00 in0.0 mm 0.00 in0.0 mm 0.00 in0.0 mm
03:50 PM 49.7°F9.8°C 43.8°F6.6°C 80% 0.9 mph NE1.4 kmh NE 6.0 mph9.7 kmh 30.22 in1023.4 mb 0.00 in0.0 mm 0.00 in0.0 mm 0.00 in0.0 mm
04:00 PM 49.5°F9.7°C 42.9°F6.1°C 78% 0.3 mph NE0.5 kmh NE 5.0 mph8.0 kmh 30.23 in1023.7 mb 0.00 in0.0 mm 0.00 in0.0 mm 0.00 in0.0 mm
04:10 PM 49.4°F9.7°C 42.5°F5.8°C 77% 0.8 mph E1.3 kmh E 5.0 mph8.0 kmh 30.22 in1023.4 mb 0.00 in0.0 mm 0.00 in0.0 mm 0.00 in0.0 mm
04:20 PM 49.2°F9.6°C 42.6°F5.9°C 78% 0.8 mph ENE1.3 kmh ENE 5.0 mph8.0 kmh 30.22 in1023.4 mb 0.00 in0.0 mm 0.00 in0.0 mm 0.00 in0.0 mm
04:30 PM 49.1°F9.5°C 42.9°F6.1°C 79% 1.0 mph NE1.6 kmh NE 4.0 mph6.4 kmh 30.21 in1023.0 mb 0.00 in0.0 mm 0.00 in0.0 mm 0.00 in0.0 mm
04:40 PM 48.9°F9.4°C 42.7°F5.9°C 79% 1.5 mph NE2.4 kmh NE 7.0 mph11.3 kmh 30.20 in1022.7 mb 0.00 in0.0 mm 0.00 in0.0 mm 0.00 in0.0 mm
04:50 PM 48.9°F9.4°C 43.3°F6.3°C 81% 2.0 mph NE3.2 kmh NE 7.0 mph11.3 kmh 30.20 in1022.7 mb 0.00 in0.0 mm 0.00 in0.0 mm 0.00 in0.0 mm
05:00 PM 48.8°F9.3°C 43.2°F6.2°C 81% 1.7 mph NE2.7 kmh NE 7.0 mph11.3 kmh 30.20 in1022.7 mb 0.00 in0.0 mm 0.00 in0.0 mm 0.00 in0.0 mm
05:10 PM 48.6°F9.2°C 43.0°F6.1°C 81% 1.5 mph NE2.4 kmh NE 7.0 mph11.3 kmh 30.20 in1022.7 mb 0.00 in0.0 mm 0.00 in0.0 mm 0.00 in0.0 mm
05:20 PM 48.5°F9.2°C 43.3°F6.3°C 82% 0.9 mph NE1.4 kmh NE 7.0 mph11.3 kmh 30.21 in1023.0 mb 0.00 in0.0 mm 0.00 in0.0 mm 0.00 in0.0 mm
05:30 PM 48.2°F9.0°C 43.6°F6.4°C 84% 1.4 mph NE2.3 kmh NE 7.0 mph11.3 kmh 30.23 in1023.7 mb 0.00 in0.0 mm 0.00 in0.0 mm 0.00 in0.0 mm
05:40 PM 47.9°F8.8°C 43.6°F6.4°C 85% 2.0 mph NE3.2 kmh NE 8.0 mph12.9 kmh 30.23 in1023.7 mb 0.00 in0.0 mm 0.00 in0.0 mm 0.00 in0.0 mm
05:50 PM 47.6°F8.7°C 43.6°F6.4°C 86% 1.4 mph NE2.3 kmh NE 7.0 mph11.3 kmh 30.23 in1023.7 mb 0.00 in0.0 mm 0.00 in0.0 mm 0.00 in0.0 mm
06:00 PM 47.4°F8.6°C 43.4°F6.3°C 86% 2.1 mph NE3.4 kmh NE 7.0 mph11.3 kmh 30.23 in1023.7 mb 0.00 in0.0 mm 0.00 in0.0 mm 0.00 in0.0 mm
06:10 PM 47.3°F8.5°C 43.6°F6.4°C 87% 1.3 mph NE2.1 kmh NE 5.0 mph8.0 kmh 30.25 in1024.4 mb 0.00 in0.0 mm 0.00 in0.0 mm 0.00 in0.0 mm
06:20 PM 46.8°F8.2°C 43.7°F6.5°C 89% 0.2 mph NE0.3 kmh NE 4.0 mph6.4 kmh 30.26 in1024.7 mb 0.00 in0.0 mm 0.00 in0.0 mm 0.00 in0.0 mm
06:30 PM 46.5°F8.1°C 43.4°F6.3°C 89% Calm Calm 5.0 mph8.0 kmh 30.26 in1024.7 mb 0.00 in0.0 mm 0.00 in0.0 mm 0.00 in0.0 mm
06:40 PM 46.4°F8.0°C 43.6°F6.4°C 90% 0.4 mph NNE0.6 kmh NNE 6.0 mph9.7 kmh 30.27 in1025.1 mb 0.00 in0.0 mm 0.00 in0.0 mm 0.00 in0.0 mm
06:50 PM 46.3°F7.9°C 43.5°F6.4°C 90% 0.8 mph NE1.3 kmh NE 9.0 mph14.5 kmh 30.26 in1024.7 mb 0.00 in0.0 mm 0.00 in0.0 mm 0.00 in0.0 mm
07:00 PM 46.1°F7.8°C 44.2°F6.8°C 93% 1.6 mph NNE2.6 kmh NNE 6.0 mph9.7 kmh 30.25 in1024.4 mb 0.00 in0.0 mm 0.00 in0.0 mm 0.00 in0.0 mm
07:10 PM 45.4°F7.4°C 44.3°F6.8°C 96% 1.0 mph NE1.6 kmh NE 5.0 mph8.0 kmh 30.25 in1024.4 mb 0.01 in0.3 mm 0.06 in1.5 mm 0.01 in0.3 mm
07:20 PM 44.8°F7.1°C 44.3°F6.8°C 98% 1.6 mph NNE2.6 kmh NNE 6.0 mph9.7 kmh 30.25 in1024.4 mb 0.01 in0.3 mm 0.00 in0.0 mm 0.01 in0.3 mm
07:30 PM 44.5°F6.9°C 44.2°F6.8°C 99% 1.7 mph NNE2.7 kmh NNE 6.0 mph9.7 kmh 30.26 in1024.7 mb 0.02 in0.5 mm 0.06 in1.5 mm 0.02 in0.5 mm
07:40 PM 44.4°F6.9°C 44.1°F6.7°C 99% 1.0 mph NNE1.6 kmh NNE 6.0 mph9.7 kmh 30.27 in1025.1 mb 0.02 in0.5 mm 0.00 in0.0 mm 0.02 in0.5 mm
07:50 PM 44.2°F6.8°C 43.9°F6.6°C 99% 0.4 mph NNE0.6 kmh NNE 5.0 mph8.0 kmh 30.26 in1024.7 mb 0.03 in0.8 mm 0.06 in1.5 mm 0.03 in0.8 mm
08:00 PM 44.1°F6.7°C 43.8°F6.6°C 99% 1.0 mph NE1.6 kmh NE 4.0 mph6.4 kmh 30.27 in1025.1 mb 0.03 in0.8 mm 0.00 in0.0 mm 0.03 in0.8 mm
08:10 PM 44.1°F6.7°C 43.8°F6.6°C 99% 0.6 mph NE1.0 kmh NE 6.0 mph9.7 kmh 30.26 in1024.7 mb 0.03 in0.8 mm 0.00 in0.0 mm 0.04 in1.0 mm
08:20 PM 43.9°F6.6°C 43.9°F6.6°C 100% 1.0 mph ENE1.6 kmh ENE 6.0 mph9.7 kmh 30.25 in1024.4 mb 0.03 in0.8 mm 0.00 in0.0 mm 0.04 in1.0 mm
08:30 PM 43.8°F6.6°C 43.5°F6.4°C 99% 1.0 mph ENE1.6 kmh ENE 5.0 mph8.0 kmh 30.25 in1024.4 mb 0.02 in0.5 mm 0.00 in0.0 mm 0.04 in1.0 mm
08:40 PM 43.8°F6.6°C 43.5°F6.4°C 99% 1.0 mph ENE1.6 kmh ENE 9.0 mph14.5 kmh 30.26 in1024.7 mb 0.02 in0.5 mm 0.00 in0.0 mm 0.04 in1.0 mm
08:50 PM 43.9°F6.6°C 43.6°F6.4°C 99% 0.5 mph ENE0.8 kmh ENE 5.0 mph8.0 kmh 30.28 in1025.4 mb 0.01 in0.3 mm 0.00 in0.0 mm 0.04 in1.0 mm
09:00 PM 43.8°F6.6°C 43.3°F6.3°C 98% Calm Calm 3.0 mph4.8 kmh 30.28 in1025.4 mb 0.01 in0.3 mm 0.00 in0.0 mm 0.04 in1.0 mm
09:10 PM 43.8°F6.6°C 43.3°F6.3°C 98% Calm Calm 4.0 mph6.4 kmh 30.28 in1025.4 mb 0.00 in0.0 mm 0.00 in0.0 mm 0.04 in1.0 mm
09:20 PM 43.6°F6.4°C 43.3°F6.3°C 99% Calm Calm 3.0 mph4.8 kmh 30.27 in1025.1 mb 0.00 in0.0 mm 0.00 in0.0 mm 0.04 in1.0 mm
09:30 PM 43.4°F6.3°C 43.4°F6.3°C 100% Calm Calm 1.0 mph1.6 kmh 30.28 in1025.4 mb 0.01 in0.3 mm 0.06 in1.5 mm 0.05 in1.3 mm
09:40 PM 43.4°F6.3°C 43.4°F6.3°C 100% Calm Calm -- 30.28 in1025.4 mb 0.01 in0.3 mm 0.00 in0.0 mm 0.05 in1.3 mm
09:50 PM 43.2°F6.2°C 43.2°F6.2°C 100% Calm Calm -- 30.27 in1025.1 mb 0.01 in0.3 mm 0.00 in0.0 mm 0.05 in1.3 mm
10:00 PM 43.1°F6.2°C 43.1°F6.2°C 100% Calm Calm -- 30.27 in1025.1 mb 0.01 in0.3 mm 0.00 in0.0 mm 0.05 in1.3 mm
10:10 PM 43.1°F6.2°C 43.1°F6.2°C 100% Calm Calm -- 30.28 in1025.4 mb 0.01 in0.3 mm 0.00 in0.0 mm 0.05 in1.3 mm
10:20 PM 43.1°F6.2°C 43.1°F6.2°C 100% Calm Calm -- 30.28 in1025.4 mb 0.02 in0.5 mm 0.06 in1.5 mm 0.06 in1.5 mm
10:30 PM 43.1°F6.2°C 43.1°F6.2°C 100% Calm Calm 1.0 mph1.6 kmh 30.27 in1025.1 mb 0.01 in0.3 mm 0.00 in0.0 mm 0.06 in1.5 mm
10:40 PM 43.1°F6.2°C 43.1°F6.2°C 100% Calm Calm -- 30.27 in1025.1 mb 0.02 in0.5 mm 0.06 in1.5 mm 0.07 in1.8 mm
10:50 PM 43.1°F6.2°C 43.1°F6.2°C 100% Calm Calm 3.0 mph4.8 kmh 30.25 in1024.4 mb 0.02 in0.5 mm 0.00 in0.0 mm 0.07 in1.8 mm
11:00 PM 42.9°F6.1°C 42.9°F6.1°C 100% Calm Calm 4.0 mph6.4 kmh 30.24 in1024.0 mb 0.02 in0.5 mm 0.00 in0.0 mm 0.07 in1.8 mm
11:10 PM 42.9°F6.1°C 42.9°F6.1°C 100% 0.7 mph E1.1 kmh E 5.0 mph8.0 kmh 30.24 in1024.0 mb 0.02 in0.5 mm 0.00 in0.0 mm 0.07 in1.8 mm
11:20 PM 42.9°F6.1°C 42.9°F6.1°C 100% 0.4 mph ENE0.6 kmh ENE 5.0 mph8.0 kmh 30.23 in1023.7 mb 0.01 in0.3 mm 0.00 in0.0 mm 0.07 in1.8 mm
11:30 PM 42.8°F6.0°C 42.8°F6.0°C 100% 0.6 mph E1.0 kmh E 8.0 mph12.9 kmh 30.22 in1023.4 mb 0.01 in0.3 mm 0.00 in0.0 mm 0.07 in1.8 mm
11:40 PM 42.8°F6.0°C 42.8°F6.0°C 100% 0.9 mph E1.4 kmh E 7.0 mph11.3 kmh 30.23 in1023.7 mb 0.00 in0.0 mm 0.00 in0.0 mm 0.07 in1.8 mm
11:50 PM 42.6°F5.9°C 42.6°F5.9°C 100% 0.5 mph ENE0.8 kmh ENE 3.0 mph4.8 kmh 30.23 in1023.7 mb 0.01 in0.3 mm 0.06 in1.5 mm 0.08 in2.0 mm